Terminal Aerodrome Forecast
Issued by NWS Wilmington, OH

Current Version | Previous Version | Text Only | Print | Product List | Glossary Off
Versions: 1 2 3 4 5 6 7 8 9 10 11 12 13 14 15 16 17

000
FTUS41 KILN 300500
TAFCMH
TAF
KCMH 300520Z 3006/3106 VRB03KT P6SM SCT040
     FM301500 26008KT P6SM VCSH BKN040
     FM302000 25008KT P6SM SCT050
     FM302300 22004KT P6SM SCT080=

USA.gov is the U.S. government's official web portal to all federal, state and local government web resources and services.